createdAt,value
2022-09-04T00:00:24.967Z,20.58
2022-09-04T00:01:45.105Z,36.92
2022-09-04T00:03:00.077Z,25.52
2022-09-04T00:04:16.753Z,26.83
2022-09-04T00:05:25.391Z,19.83
2022-09-04T00:06:38.460Z,4.63
2022-09-04T00:07:52.805Z,12.80
2022-09-04T00:09:06.494Z,24.33
2022-09-04T00:10:19.439Z,9.73
2022-09-04T00:11:38.125Z,10.43
2022-09-04T00:12:47.213Z,12.82
2022-09-04T00:13:58.417Z,20.40
2022-09-04T00:15:07.619Z,8.73
2022-09-04T00:16:20.121Z,20.63
2022-09-04T00:17:29.679Z,22.23
2022-09-04T00:18:40.338Z,21.05
2022-09-04T00:19:48.719Z,9.90
2022-09-04T00:20:59.223Z,8.32
2022-09-04T00:22:04.349Z,12.15
2022-09-04T00:23:16.661Z,9.82
2022-09-04T00:24:23.222Z,16.17
2022-09-04T00:25:38.239Z,13.80
2022-09-04T00:26:52.939Z,18.58
2022-09-04T00:28:05.654Z,31.23
2022-09-04T00:29:17.884Z,14.68
2022-09-04T00:30:21.728Z,16.80
2022-09-04T00:31:38.915Z,16.95
2022-09-04T00:32:49.691Z,13.20
2022-09-04T00:34:01.013Z,14.93
2022-09-04T00:35:13.822Z,5.75
2022-09-04T00:36:17.530Z,22.67
2022-09-04T00:37:28.906Z,29.42
2022-09-04T00:38:41.319Z,17.92
2022-09-04T00:39:51.169Z,12.23
2022-09-04T00:41:05.968Z,7.15
2022-09-04T00:42:26.624Z,6.82
2022-09-04T00:43:59.133Z,9.25
2022-09-04T00:45:31.926Z,8.70
2022-09-04T00:46:52.299Z,23.85
2022-09-04T00:48:12.197Z,35.13
2022-09-04T00:49:33.053Z,9.05
2022-09-04T00:50:51.608Z,13.60
2022-09-04T00:52:02.150Z,138.13
2022-09-04T00:53:30.177Z,191.38
2022-09-04T00:54:47.841Z,174.70
2022-09-04T00:56:25.325Z,146.10
